Terminal Aerodrome Forecast
Issued by NWS

Home | Current Version | Previous Version | Text Only | Print | Product List | Glossary On
Versions: 1 2 3 4 5 6 7 8 9 10 11 12 13 14 15 16 17 18 19 20 21 22 23 24 25 26 27 28
000
FTUS45 KSLC 241908 AAA
TAFOGD
TAF AMD
KOGD 241908Z 2419/2518 18009KT P6SM VCSH SCT025 BKN050
     FM242100 28006KT P6SM VCSH SCT020 BKN050
     FM250300 VRB05KT 2SM -SHSN SCT010 BKN025=

USA.gov is the U.S. government's official web portal to all federal, state and local government web resources and services.